Time;durP1;ratioP1;P1;durP2;ratioP2;P2;SDS_P1;SDS_P2;PMS_P1;PMS_P2;Temp;Humidity;BMP_temperature;BMP_pressure;BME280_temperature;BME280_humidity;BME280_pressure;Samples;Min_cycle;Max_cycle;Signal;HPM_P1;HPM_P2
2023/06/04 00:01:03;;;;;;;1.80;1.48;;;;;;;14.15;51.26;99280.72;4994915;28;20026;-81
2023/06/04 00:03:30;;;;;;;3.75;1.73;;;;;;;14.52;50.46;99272.59;4999021;28;20144;-81
2023/06/04 00:05:55;;;;;;;2.40;1.77;;;;;;;14.58;50.29;99274.22;4992607;28;20194;-81
2023/06/04 00:08:21;;;;;;;2.42;1.70;;;;;;;14.57;50.11;99265.34;4997066;28;20052;-80
2023/06/04 00:10:46;;;;;;;1.95;1.48;;;;;;;14.35;50.50;99272.75;4990197;28;20037;-81
2023/06/04 00:13:11;;;;;;;2.85;1.65;;;;;;;14.29;50.78;99273.81;4989260;28;20867;-81
2023/06/04 00:15:37;;;;;;;4.20;1.70;;;;;;;14.43;50.39;99277.66;4969747;28;20030;-81
2023/06/04 00:18:02;;;;;;;2.97;1.55;;;;;;;14.37;50.48;99269.84;4990992;28;20169;-81
2023/06/04 00:20:27;;;;;;;2.58;1.80;;;;;;;14.55;50.24;99267.47;4973016;28;20050;-81
2023/06/04 00:22:53;;;;;;;4.97;2.05;;;;;;;13.67;52.17;99273.72;4993377;28;20031;-80
2023/06/04 00:25:18;;;;;;;4.28;1.73;;;;;;;14.23;50.87;99269.47;4988871;28;20146;-81
2023/06/04 00:27:43;;;;;;;1.88;1.38;;;;;;;14.35;50.65;99262.03;5006061;28;20042;-81
2023/06/04 00:30:09;;;;;;;2.53;1.48;;;;;;;13.67;52.26;99264.84;4997436;28;20482;-81
2023/06/04 00:32:35;;;;;;;2.40;1.70;;;;;;;13.57;52.66;99264.75;5002465;28;20041;-81
2023/06/04 00:35:01;;;;;;;3.42;1.58;;;;;;;14.17;51.03;99265.16;4992674;28;20042;-81
2023/06/04 00:37:28;;;;;;;2.03;1.70;;;;;;;12.45;54.61;99265.56;4994551;28;20030;-81
2023/06/04 00:39:53;;;;;;;3.33;2.20;;;;;;;13.84;51.84;99249.41;4974668;28;20504;-81
2023/06/04 00:42:19;;;;;;;5.55;1.88;;;;;;;13.98;51.74;99263.97;4977828;28;20070;-81
2023/06/04 00:44:45;;;;;;;1.98;1.58;;;;;;;14.04;51.34;99262.94;4977282;28;20045;-81
2023/06/04 00:47:12;;;;;;;5.47;1.95;;;;;;;13.13;53.91;99258.78;4992842;28;20042;-81
2023/06/04 00:49:38;;;;;;;1.98;1.70;;;;;;;14.05;51.55;99256.50;4996711;28;20022;-81
2023/06/04 00:52:04;;;;;;;2.00;1.80;;;;;;;14.12;50.93;99257.06;4995568;28;20081;-81
2023/06/04 00:54:30;;;;;;;3.20;1.60;;;;;;;14.10;50.95;99256.53;4992737;28;20023;-81
2023/06/04 00:56:55;;;;;;;2.13;1.77;;;;;;;14.06;51.07;99258.13;4998112;28;20114;-81
2023/06/04 00:59:21;;;;;;;2.47;1.50;;;;;;;13.89;51.39;99244.06;4992446;28;20778;-80
2023/06/04 01:01:47;;;;;;;3.67;1.63;;;;;;;14.05;51.07;99251.13;4974673;28;20798;-81
2023/06/04 01:04:20;;;;;;;2.20;1.75;;;;;;;13.80;51.14;99229.53;4993643;28;20081;-81
2023/06/04 01:06:51;;;;;;;1.95;1.67;;;;;;;13.67;52.06;99260.31;4989661;28;20034;-81
2023/06/04 01:09:17;;;;;;;2.70;1.70;;;;;;;13.65;51.84;99249.00;4992707;28;20030;-80
2023/06/04 01:11:43;;;;;;;3.35;1.55;;;;;;;13.90;51.52;99261.78;4957690;28;20030;-80
2023/06/04 01:14:09;;;;;;;2.42;1.40;;;;;;;13.96;51.29;99253.50;4987952;28;20133;-80
2023/06/04 01:16:45;;;;;;;1.77;1.48;;;;;;;13.69;51.76;99270.78;4991239;28;20105;-80
2023/06/04 01:19:32;;;;;;;2.05;1.55;;;;;;;13.61;51.85;99245.22;4993269;28;20036;-80
2023/06/04 01:22:04;;;;;;;3.88;1.70;;;;;;;13.80;51.73;99253.69;4989972;28;20481;-80
2023/06/04 01:24:36;;;;;;;2.45;1.98;;;;;;;13.77;51.39;99262.22;4985665;28;20031;-81
2023/06/04 01:27:04;;;;;;;2.40;1.48;;;;;;;13.27;52.72;99252.75;4987136;28;20035;-80
2023/06/04 01:29:30;;;;;;;1.52;1.42;;;;;;;13.68;51.83;99243.13;4992799;28;20508;-80
2023/06/04 01:31:56;;;;;;;2.63;1.33;;;;;;;13.79;51.75;99257.41;4990196;28;20034;-80
2023/06/04 01:34:21;;;;;;;4.13;1.58;;;;;;;13.78;51.42;99250.44;4997366;28;20081;-80
2023/06/04 01:36:47;;;;;;;2.05;1.95;;;;;;;13.61;51.94;99257.84;4975433;28;20034;-80
2023/06/04 01:39:12;;;;;;;4.38;1.58;;;;;;;13.41;52.66;99270.03;4990168;28;20573;-80
2023/06/04 01:41:38;;;;;;;3.55;1.73;;;;;;;13.65;51.64;99261.63;4973836;28;20034;-80
2023/06/04 01:44:03;;;;;;;5.28;1.83;;;;;;;13.59;52.00;99266.13;4971954;28;20030;-81
2023/06/04 01:46:28;;;;;;;2.88;2.00;;;;;;;13.34;52.31;99258.72;4973389;28;20035;-80
2023/06/04 01:48:54;;;;;;;1.23;1.13;;;;;;;13.54;52.00;99258.06;4992333;28;20552;-80
2023/06/04 01:51:19;;;;;;;2.20;1.80;;;;;;;13.74;51.99;99268.13;4986609;28;20234;-79
2023/06/04 01:53:45;;;;;;;2.38;2.08;;;;;;;13.62;51.79;99264.81;4991655;28;20069;-80
2023/06/04 01:56:11;;;;;;;3.28;2.08;;;;;;;13.54;51.99;99269.59;4955691;28;20026;-80
2023/06/04 01:58:36;;;;;;;3.20;1.58;;;;;;;13.36;52.30;99267.31;4983173;28;20034;-80
2023/06/04 02:01:04;;;;;;;3.13;1.63;;;;;;;13.41;52.30;99253.16;4992349;28;20026;-80
2023/06/04 02:03:36;;;;;;;2.65;2.10;;;;;;;13.12;52.95;99249.13;4989732;28;20120;-80
2023/06/04 02:06:02;;;;;;;2.50;2.03;;;;;;;12.73;53.78;99261.88;4991732;28;20044;-81
2023/06/04 02:08:30;;;;;;;2.20;2.00;;;;;;;13.19;52.91;99271.19;4973873;28;20045;-81
2023/06/04 02:10:56;;;;;;;2.55;1.67;;;;;;;13.34;52.68;99257.91;4973824;28;20073;-81
2023/06/04 02:13:21;;;;;;;2.67;1.90;;;;;;;13.38;52.59;99257.16;4994615;28;20022;-80
2023/06/04 02:15:46;;;;;;;2.00;1.80;;;;;;;13.39;52.39;99266.78;4990957;28;20470;-80
2023/06/04 02:18:16;;;;;;;2.45;2.00;;;;;;;13.36;52.56;99266.50;4990600;28;20026;-80
2023/06/04 02:20:43;;;;;;;3.10;1.88;;;;;;;13.37;52.24;99274.28;4989340;28;20030;-81
2023/06/04 02:23:08;;;;;;;2.80;1.80;;;;;;;13.34;52.69;99274.81;4994351;28;20034;-80
2023/06/04 02:25:34;;;;;;;2.33;1.58;;;;;;;13.37;52.17;99270.78;4993932;28;20096;-80
2023/06/04 02:27:59;;;;;;;3.75;2.20;;;;;;;13.08;53.10;99264.94;4991479;28;20544;-81
2023/06/04 02:30:25;;;;;;;4.88;1.90;;;;;;;12.87;53.15;99276.47;4991013;28;20041;-81
2023/06/04 02:32:50;;;;;;;2.38;1.95;;;;;;;12.92;53.14;99271.16;4988389;28;20549;-81
2023/06/04 02:35:17;;;;;;;2.28;2.00;;;;;;;13.13;52.92;99266.81;4990892;28;20029;-81
2023/06/04 02:37:43;;;;;;;3.53;1.90;;;;;;;12.91;53.72;99266.84;4990070;28;20041;-81
2023/06/04 02:40:09;;;;;;;3.15;2.55;;;;;;;13.16;53.00;99275.19;4986804;28;20052;-81
2023/06/04 02:42:34;;;;;;;4.93;2.28;;;;;;;13.15;52.76;99265.50;4991524;28;20112;-81
2023/06/04 02:45:00;;;;;;;5.32;3.47;;;;;;;13.10;52.89;99268.16;4983765;28;20069;-81
2023/06/04 02:47:25;;;;;;;8.05;3.60;;;;;;;13.01;53.06;99271.50;4990626;28;20037;-80
2023/06/04 02:49:51;;;;;;;5.10;3.45;;;;;;;12.97;53.48;99273.91;4992585;28;20765;-81
2023/06/04 02:52:16;;;;;;;5.50;3.13;;;;;;;13.03;53.19;99272.88;4974286;28;20376;-81
2023/06/04 02:54:41;;;;;;;10.48;4.70;;;;;;;12.43;54.67;99270.34;4989630;28;20038;-81
2023/06/04 02:57:08;;;;;;;5.15;3.08;;;;;;;12.37;54.69;99260.66;4999302;28;20034;-81
2023/06/04 02:59:33;;;;;;;5.28;2.95;;;;;;;12.93;53.61;99269.31;4988408;28;20042;-81
2023/06/04 03:01:59;;;;;;;3.60;2.80;;;;;;;12.82;53.19;99266.50;4990197;28;20034;-81
2023/06/04 03:04:24;;;;;;;5.75;2.90;;;;;;;11.60;56.07;99251.03;4989615;28;20137;-81
2023/06/04 03:06:57;;;;;;;4.00;2.35;;;;;;;11.60;57.18;99278.53;4995515;28;20383;-81
2023/06/04 03:09:22;;;;;;;4.25;2.63;;;;;;;12.06;55.44;99271.22;4996070;28;20026;-81
2023/06/04 03:11:47;;;;;;;3.83;2.83;;;;;;;12.47;54.21;99265.31;4986977;28;20394;-81
2023/06/04 03:14:13;;;;;;;3.65;2.45;;;;;;;12.06;55.73;99268.56;4956161;28;20026;-81
2023/06/04 03:16:39;;;;;;;2.47;2.00;;;;;;;11.64;55.35;99279.66;4968939;28;20098;-81
2023/06/04 03:19:05;;;;;;;3.38;2.28;;;;;;;12.36;54.46;99276.97;4982603;28;20121;-81
2023/06/04 03:21:30;;;;;;;4.93;3.00;;;;;;;12.38;54.26;99281.03;4984243;28;20130;-81
2023/06/04 03:23:56;;;;;;;4.53;1.90;;;;;;;12.53;53.58;99280.38;5000013;28;20050;-82
2023/06/04 03:26:21;;;;;;;5.38;2.88;;;;;;;12.69;53.26;99272.25;4973396;28;20118;-81
2023/06/04 03:28:47;;;;;;;4.43;2.58;;;;;;;12.87;53.42;99283.69;4987914;28;20072;-81
2023/06/04 03:31:12;;;;;;;5.55;3.22;;;;;;;12.95;53.02;99286.75;4982838;28;20025;-80
2023/06/04 03:33:37;;;;;;;4.88;2.00;;;;;;;12.90;53.02;99286.69;4995051;28;20121;-80
2023/06/04 03:36:03;;;;;;;2.58;2.05;;;;;;;12.75;53.07;99279.28;4988174;28;20038;-80
2023/06/04 03:38:29;;;;;;;5.13;2.53;;;;;;;12.67;53.73;99284.28;4974081;28;20030;-81
2023/06/04 03:40:54;;;;;;;2.70;2.40;;;;;;;12.75;53.59;99298.03;4987294;28;20479;-81
2023/06/04 03:43:21;;;;;;;5.95;2.30;;;;;;;12.69;53.71;99298.22;4988914;28;20081;-80
2023/06/04 03:45:46;;;;;;;2.80;2.55;;;;;;;12.77;54.01;99295.13;4991116;28;19972;-81
2023/06/04 03:48:12;;;;;;;4.18;2.50;;;;;;;12.80;53.56;99281.19;4985111;28;20497;-81
2023/06/04 03:50:37;;;;;;;3.78;2.63;;;;;;;12.79;53.49;99293.00;4980634;28;20037;-81
2023/06/04 03:53:06;;;;;;;3.60;2.55;;;;;;;12.82;53.71;99290.59;4988298;28;20109;-80
2023/06/04 03:55:32;;;;;;;2.83;2.28;;;;;;;12.77;53.76;99297.78;4988800;28;20018;-80
2023/06/04 03:57:58;;;;;;;5.15;2.47;;;;;;;12.62;53.85;99284.25;4987962;28;20039;-80
2023/06/04 04:00:23;;;;;;;3.70;2.60;;;;;;;11.41;58.21;99297.75;4988232;28;20549;-80
2023/06/04 04:02:49;;;;;;;4.43;2.90;;;;;;;10.82;60.85;99291.09;4989149;28;20038;-80
2023/06/04 04:05:15;;;;;;;5.10;2.60;;;;;;;10.72;61.66;99285.59;4984474;28;20045;-80
2023/06/04 04:07:40;;;;;;;3.65;2.97;;;;;;;10.70;62.31;99288.50;4990028;28;20034;-81
2023/06/04 04:10:06;;;;;;;5.65;2.95;;;;;;;10.61;61.60;99283.78;4972358;28;20494;-81
2023/06/04 04:12:32;;;;;;;5.80;3.65;;;;;;;10.60;63.42;99287.47;4970139;28;20080;-81
2023/06/04 04:14:57;;;;;;;9.55;4.35;;;;;;;10.70;62.29;99283.16;4985821;28;20056;-81
2023/06/04 04:17:22;;;;;;;13.68;6.40;;;;;;;10.74;63.70;99294.97;4987760;28;20375;-81
2023/06/04 04:19:50;;;;;;;10.05;6.38;;;;;;;10.64;63.96;99289.44;4988173;28;20038;-80
2023/06/04 04:22:17;;;;;;;10.88;6.85;;;;;;;10.52;64.44;99288.69;4987158;28;20023;-80
2023/06/04 04:24:43;;;;;;;15.98;7.63;;;;;;;10.74;64.41;99300.31;4991502;28;20208;-80
2023/06/04 04:27:13;;;;;;;13.20;8.15;;;;;;;10.89;64.19;99305.13;4971520;28;20034;-81
2023/06/04 04:29:39;;;;;;;24.15;8.00;;;;;;;11.09;64.04;99300.16;4988627;28;20022;-81
2023/06/04 04:32:11;;;;;;;27.08;12.77;;;;;;;11.24;64.72;99300.41;4986307;28;20088;-79
2023/06/04 04:34:39;;;;;;;28.50;13.18;;;;;;;11.25;63.13;99291.34;4984192;28;20089;-80
2023/06/04 04:37:08;;;;;;;25.17;14.32;;;;;;;11.31;62.82;99290.38;4989495;28;20569;-80
2023/06/04 04:39:35;;;;;;;23.15;12.50;;;;;;;11.31;62.59;99285.84;4973691;28;20481;-80
2023/06/04 04:42:01;;;;;;;24.98;11.57;;;;;;;11.63;63.17;99301.31;4988615;28;20029;-80
2023/06/04 04:44:27;;;;;;;22.38;11.18;;;;;;;11.56;62.57;99288.13;4989792;28;20026;-80
2023/06/04 04:46:52;;;;;;;21.90;10.52;;;;;;;11.57;61.88;99295.09;4968569;28;20042;-80
2023/06/04 04:49:18;;;;;;;27.45;10.77;;;;;;;11.82;61.82;99294.69;4972372;28;20026;-80
2023/06/04 04:51:43;;;;;;;19.10;10.55;;;;;;;11.92;61.59;99298.34;4970098;28;20058;-80
2023/06/04 04:54:08;;;;;;;23.08;11.07;;;;;;;11.93;61.68;99309.81;4987769;28;20401;-79
2023/06/04 04:59:07;;;;;;;19.48;10.98;;;;;;;12.14;61.80;99309.06;5012547;28;20049;-78
2023/06/04 05:01:33;;;;;;;19.17;10.77;;;;;;;12.20;62.18;99304.59;5020195;28;20496;-79
2023/06/04 05:03:58;;;;;;;21.05;9.93;;;;;;;12.29;61.63;99311.13;5019476;28;20030;-77
2023/06/04 05:06:23;;;;;;;17.33;8.95;;;;;;;12.27;61.31;99313.25;5008548;28;20120;-79
2023/06/04 05:08:49;;;;;;;19.10;8.93;;;;;;;12.25;62.18;99312.69;5008937;28;20516;-79
2023/06/04 05:11:14;;;;;;;16.88;8.82;;;;;;;12.10;61.72;99315.16;5004726;28;20058;-80
2023/06/04 05:13:41;;;;;;;17.33;8.30;;;;;;;11.87;62.51;99316.97;5006794;28;20037;-78
2023/06/04 05:16:07;;;;;;;20.48;8.52;;;;;;;11.68;62.81;99315.63;5014082;28;20092;-80
2023/06/04 05:18:33;;;;;;;14.95;7.00;;;;;;;11.86;63.88;99322.56;5014763;28;20014;-80
2023/06/04 05:21:02;;;;;;;14.50;7.43;;;;;;;11.86;62.16;99319.91;5015300;28;20061;-79
2023/06/04 05:23:29;;;;;;;12.00;6.70;;;;;;;11.90;62.52;99324.50;5012275;28;20061;-80
2023/06/04 05:25:55;;;;;;;15.68;6.50;;;;;;;11.67;63.14;99314.00;5015137;28;20038;-79
2023/06/04 05:28:24;;;;;;;14.75;5.63;;;;;;;11.60;63.54;99315.19;5014597;28;20088;-78
2023/06/04 05:30:49;;;;;;;10.50;5.32;;;;;;;12.23;60.48;99320.16;5008149;28;20423;-78
2023/06/04 05:33:17;;;;;;;10.75;5.25;;;;;;;12.13;61.86;99328.03;5011646;28;20128;-78
2023/06/04 05:35:52;;;;;;;13.40;5.88;;;;;;;12.29;61.49;99319.97;5014262;28;20428;-78
2023/06/04 05:38:18;;;;;;;7.47;4.57;;;;;;;11.54;62.42;99316.13;5007339;28;20544;-78
2023/06/04 05:40:45;;;;;;;16.55;6.53;;;;;;;11.51;63.46;99317.44;5008824;28;20034;-77
2023/06/04 05:43:10;;;;;;;8.55;4.53;;;;;;;12.02;61.50;99321.72;5011142;28;20119;-77
2023/06/04 05:45:35;;;;;;;11.75;5.75;;;;;;;12.65;60.41;99326.56;5005984;28;21820;-76
2023/06/04 05:48:01;;;;;;;8.25;4.47;;;;;;;12.88;59.15;99322.81;5006639;28;20150;-77
2023/06/04 05:50:28;;;;;;;7.22;4.32;;;;;;;13.51;57.50;99328.31;5004141;28;20045;-77
2023/06/04 05:52:53;;;;;;;11.38;5.25;;;;;;;13.30;58.19;99332.66;5002339;28;20030;-77
2023/06/04 05:55:19;;;;;;;6.90;4.88;;;;;;;13.21;59.83;99339.56;5004581;28;20034;-76
2023/06/04 05:57:44;;;;;;;8.15;4.25;;;;;;;12.59;61.09;99333.75;4993068;28;20041;-77
2023/06/04 06:00:10;;;;;;;6.53;4.45;;;;;;;12.70;60.01;99337.34;5006367;28;20655;-77
2023/06/04 06:02:38;;;;;;;9.57;4.30;;;;;;;13.06;59.89;99342.06;5006854;28;20034;-78
2023/06/04 06:05:05;;;;;;;6.38;4.53;;;;;;;12.23;60.75;99341.56;5013363;28;20496;-78
2023/06/04 06:07:30;;;;;;;5.78;3.58;;;;;;;11.97;60.34;99346.53;5014944;28;20033;-78
2023/06/04 06:09:56;;;;;;;6.95;4.00;;;;;;;12.37;59.62;99342.81;5010414;28;20088;-78
2023/06/04 06:12:21;;;;;;;9.70;3.83;;;;;;;12.79;59.51;99334.00;5020528;28;20041;-78
2023/06/04 06:14:46;;;;;;;5.40;3.50;;;;;;;11.66;60.41;99349.78;5007977;28;20034;-77
2023/06/04 06:17:12;;;;;;;5.53;3.30;;;;;;;12.54;59.20;99343.56;5011001;28;20048;-78
2023/06/04 06:19:37;;;;;;;4.38;3.08;;;;;;;12.60;57.96;99345.28;5010618;28;20503;-76
2023/06/04 06:22:03;;;;;;;5.55;3.15;;;;;;;11.83;58.33;99353.28;5009854;28;20030;-77
2023/06/04 06:24:29;;;;;;;5.68;3.05;;;;;;;11.60;58.84;99349.94;5011208;28;20033;-77
2023/06/04 06:26:55;;;;;;;9.60;2.90;;;;;;;11.56;59.42;99367.50;5011088;28;20017;-77
2023/06/04 06:29:20;;;;;;;7.13;2.47;;;;;;;11.97;58.39;99359.91;5011535;28;20032;-77
2023/06/04 06:31:46;;;;;;;5.80;3.13;;;;;;;11.88;59.72;99358.69;5011330;28;20030;-77
2023/06/04 06:34:11;;;;;;;5.80;2.95;;;;;;;12.59;58.74;99360.53;5006819;28;20029;-77
2023/06/04 06:36:37;;;;;;;3.95;2.83;;;;;;;13.04;57.94;99352.19;5010092;28;20116;-78
2023/06/04 06:39:03;;;;;;;6.65;3.10;;;;;;;13.18;57.57;99360.69;5003519;28;20030;-76
2023/06/04 06:41:30;;;;;;;5.50;3.08;;;;;;;13.34;57.28;99367.84;5005156;28;20461;-76
2023/06/04 06:43:59;;;;;;;5.05;2.78;;;;;;;13.09;58.34;99363.00;5006122;28;20026;-78
2023/06/04 06:46:24;;;;;;;4.57;2.58;;;;;;;14.09;55.72;99364.94;5004683;28;20117;-80
2023/06/04 06:48:49;;;;;;;2.90;2.63;;;;;;;13.01;57.41;99355.41;4989701;28;20093;-78
2023/06/04 06:51:15;;;;;;;4.65;2.30;;;;;;;13.23;57.48;99369.59;5003939;28;20075;-79
2023/06/04 06:53:41;;;;;;;6.53;3.65;;;;;;;12.96;57.64;99363.38;5009380;28;20030;-80
2023/06/04 06:56:07;;;;;;;3.95;2.30;;;;;;;13.16;59.30;99358.28;5009227;28;20025;-84
2023/06/04 06:58:32;;;;;;;3.85;3.00;;;;;;;13.26;57.84;99373.63;4977923;28;20109;-77
2023/06/04 07:00:57;;;;;;;3.75;2.58;;;;;;;13.42;58.54;99368.19;4993258;28;20038;-78
2023/06/04 07:03:23;;;;;;;5.20;2.38;;;;;;;13.28;57.42;99375.00;4999854;28;20037;-77
2023/06/04 07:05:48;;;;;;;3.85;3.38;;;;;;;13.53;59.10;99377.13;5010781;28;20037;-77
2023/06/04 07:08:14;;;;;;;9.50;3.03;;;;;;;13.74;58.83;99373.53;5016534;28;20511;-78
2023/06/04 07:10:39;;;;;;;3.17;2.88;;;;;;;13.70;56.91;99382.34;5013078;28;20503;-78
2023/06/04 07:13:04;;;;;;;8.95;2.85;;;;;;;13.85;56.04;99385.16;5004900;28;20396;-78
2023/06/04 07:15:30;;;;;;;8.38;3.08;;;;;;;13.87;55.55;99388.44;5004969;28;20049;-77
2023/06/04 07:17:55;;;;;;;5.88;2.80;;;;;;;14.04;56.32;99376.47;5008815;28;20037;-78
2023/06/04 07:20:30;;;;;;;3.97;2.92;;;;;;;14.19;56.46;99384.66;5004370;28;20205;-77
2023/06/04 07:23:15;;;;;;;2.85;2.60;;;;;;;15.03;54.71;99379.16;4988613;28;20048;-77
2023/06/04 07:25:41;;;;;;;4.20;3.03;;;;;;;14.53;54.34;99389.69;4993043;28;20030;-78
2023/06/04 07:28:08;;;;;;;3.15;2.83;;;;;;;14.49;54.47;99393.97;4988558;28;20072;-77
2023/06/04 07:30:33;;;;;;;4.55;2.90;;;;;;;15.57;52.85;99383.06;5002924;28;20636;-77
2023/06/04 07:32:58;;;;;;;3.33;2.22;;;;;;;14.82;53.88;99382.84;5000456;28;20061;-77
2023/06/04 07:35:24;;;;;;;3.03;2.67;;;;;;;15.27;53.61;99380.31;5003483;28;20057;-78
2023/06/04 07:37:50;;;;;;;3.75;2.17;;;;;;;15.45;53.01;99379.84;5004456;28;20037;-77
2023/06/04 07:40:16;;;;;;;3.65;3.10;;;;;;;16.19;51.37;99377.41;5005719;28;20034;-76
2023/06/04 07:42:42;;;;;;;3.67;2.88;;;;;;;15.83;51.59;99372.34;4995025;28;20036;-76
2023/06/04 07:45:09;;;;;;;7.55;3.30;;;;;;;14.74;52.79;99381.47;5009159;28;20037;-78
2023/06/04 07:47:38;;;;;;;3.05;2.38;;;;;;;15.99;51.54;99374.75;4991230;28;20032;-79
2023/06/04 07:50:08;;;;;;;4.38;2.97;;;;;;;15.66;52.25;99378.00;5004479;28;20057;-79
2023/06/04 07:52:34;;;;;;;5.55;3.03;;;;;;;15.42;53.85;99391.09;5001601;28;20488;-78
2023/06/04 07:55:00;;;;;;;5.30;3.00;;;;;;;15.14;53.74;99371.94;5010465;28;20086;-79
2023/06/04 07:57:26;;;;;;;7.03;2.70;;;;;;;15.68;53.38;99376.63;5007734;28;20077;-79
2023/06/04 07:59:51;;;;;;;6.22;3.15;;;;;;;15.46;54.54;99370.72;4999657;28;20033;-78
2023/06/04 08:02:17;;;;;;;5.10;2.83;;;;;;;15.99;52.14;99366.66;5007007;28;20029;-78
2023/06/04 08:04:44;;;;;;;4.28;2.50;;;;;;;15.89;52.63;99372.06;5005404;28;20468;-78
2023/06/04 08:07:10;;;;;;;2.78;2.28;;;;;;;16.46;51.53;99385.19;5003717;28;20046;-78
2023/06/04 08:09:36;;;;;;;4.00;2.45;;;;;;;16.24;51.79;99382.81;5008942;28;20084;-78
2023/06/04 08:12:01;;;;;;;4.70;3.13;;;;;;;16.35;53.69;99376.31;5002548;28;20034;-78
2023/06/04 08:14:27;;;;;;;3.10;2.35;;;;;;;16.08;51.22;99380.38;5011865;28;20029;-78
2023/06/04 08:16:55;;;;;;;3.58;2.50;;;;;;;15.81;49.32;99377.19;5002799;28;20053;-78
2023/06/04 08:19:21;;;;;;;5.55;2.38;;;;;;;16.62;51.29;99376.00;5008649;28;20030;-78
2023/06/04 08:21:47;;;;;;;4.57;2.28;;;;;;;17.01;50.06;99374.25;5013464;28;20034;-78
2023/06/04 08:24:13;;;;;;;5.30;2.75;;;;;;;16.14;48.54;99380.09;4994693;28;20124;-78
2023/06/04 08:26:39;;;;;;;4.78;2.60;;;;;;;16.61;49.69;99389.75;5012553;28;20480;-78
2023/06/04 08:29:04;;;;;;;2.88;2.17;;;;;;;16.54;49.12;99378.44;5003040;28;20063;-78
2023/06/04 08:31:30;;;;;;;4.05;3.30;;;;;;;16.72;48.37;99377.84;5006931;28;20090;-79
2023/06/04 08:33:56;;;;;;;5.65;2.40;;;;;;;16.40;49.92;99378.97;5004085;28;20487;-79
2023/06/04 08:36:21;;;;;;;6.80;2.25;;;;;;;16.66;50.22;99381.66;5004017;28;20401;-78
2023/06/04 08:38:50;;;;;;;2.83;2.20;;;;;;;17.10;50.30;99377.94;5001081;28;20100;-78
2023/06/04 08:41:17;;;;;;;4.40;2.25;;;;;;;17.33;49.28;99384.56;5006594;28;20026;-78
2023/06/04 08:43:46;;;;;;;2.92;2.15;;;;;;;17.90;47.61;99376.66;5005344;28;20029;-78
2023/06/04 08:46:12;;;;;;;5.30;2.60;;;;;;;17.28;47.78;99378.41;5003733;28;20029;-78
2023/06/04 08:48:38;;;;;;;5.55;2.85;;;;;;;17.83;47.68;99384.25;5009262;28;20030;-78
2023/06/04 08:51:07;;;;;;;7.47;2.90;;;;;;;17.14;47.26;99379.03;5011530;28;20029;-79
2023/06/04 08:53:32;;;;;;;4.90;2.35;;;;;;;17.40;49.44;99368.88;5015071;28;20538;-79
2023/06/04 08:55:58;;;;;;;4.20;2.80;;;;;;;18.27;46.86;99377.91;5008193;28;20040;-79
2023/06/04 08:58:25;;;;;;;4.40;2.35;;;;;;;18.40;46.00;99385.34;5012993;28;20427;-79
2023/06/04 09:00:51;;;;;;;6.57;2.85;;;;;;;17.96;45.43;99380.91;5015099;28;20030;-79
2023/06/04 09:03:18;;;;;;;3.60;2.15;;;;;;;18.28;45.98;99383.03;5013907;28;20034;-78
2023/06/04 09:05:47;;;;;;;5.72;2.83;;;;;;;18.35;46.55;99383.50;5015490;28;20028;-78
2023/06/04 09:08:15;;;;;;;3.42;2.15;;;;;;;18.26;46.04;99379.03;5004870;28;20022;-78
2023/06/04 09:10:41;;;;;;;2.65;2.45;;;;;;;17.92;46.13;99371.75;5016566;28;20578;-78
2023/06/04 09:13:08;;;;;;;5.18;2.38;;;;;;;17.85;47.38;99379.38;4999898;28;20117;-78
2023/06/04 09:15:33;;;;;;;4.63;2.33;;;;;;;18.44;46.92;99381.81;5010318;28;20026;-78
2023/06/04 09:17:58;;;;;;;5.85;2.78;;;;;;;18.10;45.22;99381.06;5016471;28;20088;-78
2023/06/04 09:20:24;;;;;;;3.03;2.10;;;;;;;18.83;45.30;99397.09;5014590;28;20040;-78
2023/06/04 09:22:49;;;;;;;2.83;2.25;;;;;;;18.73;44.92;99378.25;5010885;28;20037;-79
2023/06/04 09:25:25;;;;;;;2.65;2.42;;;;;;;18.79;44.93;99383.31;5008821;28;20484;-78
2023/06/04 09:27:50;;;;;;;4.13;2.20;;;;;;;19.31;44.11;99380.47;5005796;28;20088;-78
2023/06/04 09:30:16;;;;;;;3.25;2.67;;;;;;;19.28;44.14;99386.50;5017077;28;20022;-79
2023/06/04 09:32:42;;;;;;;5.45;2.65;;;;;;;19.46;43.46;99373.28;5018222;28;20410;-79
2023/06/04 09:35:14;;;;;;;4.20;2.72;;;;;;;19.46;44.09;99368.69;5007095;28;20030;-79
2023/06/04 09:37:41;;;;;;;3.80;2.90;;;;;;;19.29;43.80;99377.25;5011616;28;20026;-79
2023/06/04 09:40:07;;;;;;;5.72;2.38;;;;;;;19.34;47.38;99374.53;5008527;28;20389;-79
2023/06/04 09:42:49;;;;;;;5.28;2.60;;;;;;;18.63;43.00;99371.09;5007841;28;20571;-80
2023/06/04 09:45:32;;;;;;;4.47;2.60;;;;;;;18.49;43.21;99365.56;5011296;28;20125;-79
2023/06/04 09:47:58;;;;;;;5.50;2.45;;;;;;;18.50;43.48;99359.03;5015372;28;20403;-78
2023/06/04 09:50:30;;;;;;;4.07;2.40;;;;;;;19.24;44.06;99363.78;5009859;28;20088;-78
2023/06/04 09:52:55;;;;;;;3.28;2.00;;;;;;;20.17;43.10;99362.88;5004306;28;20484;-79
2023/06/04 09:55:22;;;;;;;4.00;2.55;;;;;;;19.82;41.90;99358.88;5012826;28;20076;-79
2023/06/04 09:57:49;;;;;;;4.82;3.08;;;;;;;19.61;40.72;99349.47;5009949;28;20033;-78
2023/06/04 10:00:22;;;;;;;5.97;2.60;;;;;;;19.26;41.31;99348.06;5010949;28;20041;-78
2023/06/04 10:02:49;;;;;;;6.88;3.03;;;;;;;19.36;41.90;99347.97;5007482;28;20056;-77
2023/06/04 10:05:16;;;;;;;3.80;2.72;;;;;;;18.87;40.39;99360.25;5004882;28;20503;-77
2023/06/04 10:07:45;;;;;;;3.72;3.00;;;;;;;19.46;43.21;99352.44;5011014;28;20064;-78
2023/06/04 10:10:16;;;;;;;2.97;2.55;;;;;;;18.89;40.94;99348.06;5010662;28;20037;-77
2023/06/04 10:12:42;;;;;;;7.47;3.03;;;;;;;19.28;40.98;99359.44;5003913;28;20030;-78
2023/06/04 10:15:12;;;;;;;4.03;2.47;;;;;;;20.12;43.30;99355.66;5011530;28;20708;-78
2023/06/04 10:17:38;;;;;;;3.35;2.45;;;;;;;20.89;42.07;99345.78;5012019;28;20022;-79
2023/06/04 10:20:05;;;;;;;3.00;2.17;;;;;;;20.81;40.88;99351.94;5012147;28;20030;-78
2023/06/04 10:22:31;;;;;;;4.00;3.00;;;;;;;20.52;41.15;99359.56;5010220;28;20039;-78
2023/06/04 10:24:58;;;;;;;6.85;2.53;;;;;;;20.05;40.36;99357.16;5012794;28;20113;-78
2023/06/04 10:27:24;;;;;;;7.03;3.10;;;;;;;20.42;42.03;99351.59;5006184;28;20081;-78
2023/06/04 10:29:50;;;;;;;4.72;2.95;;;;;;;20.25;41.94;99351.38;5011803;28;20053;-78
2023/06/04 10:32:16;;;;;;;3.47;2.35;;;;;;;20.94;40.75;99355.72;5008275;28;20057;-78
2023/06/04 10:34:42;;;;;;;2.95;2.40;;;;;;;20.28;39.68;99347.28;5007078;28;20045;-79
2023/06/04 10:37:22;;;;;;;5.55;2.45;;;;;;;20.43;39.35;99346.97;5010247;28;20034;-76
2023/06/04 10:39:55;;;;;;;5.05;2.70;;;;;;;20.73;38.55;99351.81;5002467;28;20033;-75
2023/06/04 10:42:21;;;;;;;3.60;2.50;;;;;;;20.80;38.47;99353.00;5006892;28;20052;-76
2023/06/04 10:44:52;;;;;;;2.10;1.90;;;;;;;21.38;39.89;99352.34;4995366;28;20034;-76
2023/06/04 10:47:30;;;;;;;7.50;2.70;;;;;;;21.32;40.20;99345.41;5001895;28;20034;-75
2023/06/04 10:50:13;;;;;;;4.35;2.97;;;;;;;20.50;39.92;99348.19;5005802;28;20032;-76
2023/06/04 10:52:51;;;;;;;3.30;2.22;;;;;;;20.50;39.50;99348.19;5009920;28;20026;-75
2023/06/04 10:55:16;;;;;;;2.67;2.22;;;;;;;20.64;39.54;99350.94;5005352;28;20021;-78
2023/06/04 10:57:54;;;;;;;2.40;1.92;;;;;;;21.67;41.33;99343.78;5004147;28;20125;-78
2023/06/04 11:00:20;;;;;;;4.25;2.15;;;;;;;22.64;40.10;99343.72;5011046;28;20054;-79
2023/06/04 11:02:55;;;;;;;3.38;2.13;;;;;;;22.37;38.90;99348.22;5009858;28;20045;-79
2023/06/04 11:05:21;;;;;;;4.67;2.40;;;;;;;21.52;37.88;99339.50;4999817;28;20331;-78
2023/06/04 11:07:49;;;;;;;4.93;2.17;;;;;;;21.79;38.13;99333.16;4999625;28;20037;-78
2023/06/04 11:10:15;;;;;;;2.72;2.00;;;;;;;21.71;37.51;99333.91;5003379;28;20485;-79
2023/06/04 11:12:53;;;;;;;2.40;2.20;;;;;;;21.71;36.63;99340.13;5008326;28;20038;-79
2023/06/04 11:15:18;;;;;;;3.50;2.22;;;;;;;22.81;39.29;99349.22;5017517;28;20037;-79
2023/06/04 11:17:52;;;;;;;3.63;2.17;;;;;;;23.40;38.02;99337.63;5008919;28;20048;-80
2023/06/04 11:20:19;;;;;;;3.42;2.30;;;;;;;23.31;37.46;99342.25;5007492;28;20518;-79
2023/06/04 11:22:56;;;;;;;2.92;2.42;;;;;;;23.90;37.18;99334.38;5008707;28;20026;-78
2023/06/04 11:25:26;;;;;;;2.25;1.88;;;;;;;24.11;36.97;99330.69;4996833;28;20389;-79
2023/06/04 11:27:53;;;;;;;3.90;2.00;;;;;;;24.09;37.15;99330.19;5007197;28;20022;-80
2023/06/04 11:30:19;;;;;;;2.40;2.20;;;;;;;24.42;36.97;99323.00;5007589;28;20030;-82
2023/06/04 11:32:45;;;;;;;5.32;2.30;;;;;;;24.06;35.64;99325.41;5008927;28;20029;-79